Time;durP1;ratioP1;P1;durP2;ratioP2;P2;SDS_P1;SDS_P2;PMS_P1;PMS_P2;Temp;Humidity;BMP_temperature;BMP_pressure;BME280_temperature;BME280_humidity;BME280_pressure;Samples;Min_cycle;Max_cycle;Signal;HPM_P1;HPM_P2
2023/09/29 00:01:24;;;;;;;15.25;5.80;;;16.60;99.90;;;;;;4934899;29;20589;-88
2023/09/29 00:03:50;;;;;;;19.42;6.05;;;16.60;99.90;;;;;;4931053;29;20421;-88
2023/09/29 00:06:15;;;;;;;15.35;6.07;;;16.50;99.90;;;;;;4933450;29;20034;-88
2023/09/29 00:08:41;;;;;;;15.85;6.55;;;16.50;99.90;;;;;;4931090;29;20119;-88
2023/09/29 00:11:07;;;;;;;16.40;6.15;;;16.50;99.90;;;;;;4933810;29;20028;-88
2023/09/29 00:13:32;;;;;;;17.23;6.15;;;16.50;99.90;;;;;;4934273;29;20090;-88
2023/09/29 00:15:58;;;;;;;17.70;6.40;;;16.50;99.90;;;;;;4938397;28;20036;-88
2023/09/29 00:18:23;;;;;;;18.23;6.60;;;16.50;99.90;;;;;;4949431;29;20050;-88
2023/09/29 00:20:49;;;;;;;18.55;5.45;;;16.50;99.90;;;;;;4932679;29;20389;-88
2023/09/29 00:23:15;;;;;;;16.85;5.93;;;16.50;99.90;;;;;;4934189;29;20028;-88
2023/09/29 00:25:40;;;;;;;17.10;6.93;;;16.50;99.90;;;;;;4928653;29;20032;-88
2023/09/29 00:28:06;;;;;;;13.05;5.25;;;16.50;99.90;;;;;;4948123;28;20370;-89
2023/09/29 00:30:31;;;;;;;14.20;5.78;;;16.50;99.90;;;;;;4935168;29;20032;-88
2023/09/29 00:32:57;;;;;;;16.40;5.70;;;16.50;99.90;;;;;;4936736;29;20401;-87
2023/09/29 00:37:52;;;;;;;17.50;5.40;;;16.60;99.90;;;;;;4939348;29;20512;-88
2023/09/29 00:40:17;;;;;;;20.55;5.70;;;16.60;99.90;;;;;;4935189;29;20031;-88
2023/09/29 00:42:46;;;;;;;14.32;5.35;;;16.60;99.90;;;;;;4937396;29;20023;-88
2023/09/29 00:45:15;;;;;;;14.63;5.28;;;16.60;99.90;;;;;;4937581;29;20040;-87
2023/09/29 00:47:42;;;;;;;19.25;6.43;;;16.60;99.90;;;;;;4920599;29;20025;-89
2023/09/29 00:50:10;;;;;;;14.10;5.65;;;16.60;99.90;;;;;;4931158;29;20039;-88
2023/09/29 00:52:38;;;;;;;12.45;5.15;;;16.60;99.90;;;;;;4953705;29;20114;-88
2023/09/29 00:55:15;;;;;;;14.98;5.28;;;16.60;99.90;;;;;;4937361;29;20102;-88
2023/09/29 00:57:43;;;;;;;15.27;5.63;;;16.60;99.90;;;;;;4938539;29;20030;-88
2023/09/29 01:00:18;;;;;;;18.35;6.55;;;16.60;99.90;;;;;;4937043;29;20504;-88
2023/09/29 01:02:44;;;;;;;13.85;5.18;;;16.60;99.90;;;;;;4939762;29;20024;-89
2023/09/29 01:05:12;;;;;;;16.00;5.38;;;16.60;99.90;;;;;;4935546;29;20042;-88
2023/09/29 01:07:39;;;;;;;17.13;5.57;;;16.60;99.90;;;;;;4945104;28;20028;-88
2023/09/29 01:10:05;;;;;;;11.18;5.32;;;16.70;99.90;;;;;;4934948;29;20162;-88
2023/09/29 01:12:30;;;;;;;15.68;5.57;;;16.70;99.90;;;;;;4937099;29;20456;-88
2023/09/29 01:14:57;;;;;;;15.82;6.40;;;16.70;99.90;;;;;;4936282;29;20051;-88
2023/09/29 01:17:24;;;;;;;17.90;5.65;;;16.80;99.90;;;;;;4927228;29;20063;-87
2023/09/29 01:19:50;;;;;;;16.08;6.10;;;16.70;99.90;;;;;;4930633;28;20028;-88
2023/09/29 01:22:15;;;;;;;15.52;5.78;;;16.80;99.90;;;;;;4929040;29;20122;-87
2023/09/29 01:24:41;;;;;;;14.18;5.65;;;16.80;99.90;;;;;;4935581;28;20042;-87
2023/09/29 01:27:06;;;;;;;17.75;6.50;;;16.80;99.90;;;;;;4931515;29;20027;-87
2023/09/29 01:29:32;;;;;;;18.92;5.63;;;16.90;99.90;;;;;;4935900;29;20027;-87
2023/09/29 01:31:57;;;;;;;16.73;5.70;;;16.90;99.90;;;;;;4934758;29;20060;-88
2023/09/29 01:34:24;;;;;;;17.00;6.38;;;16.90;99.90;;;;;;4936472;29;20028;-87
2023/09/29 01:36:49;;;;;;;12.90;5.80;;;16.90;99.90;;;;;;4935999;29;20031;-88
2023/09/29 01:39:16;;;;;;;14.32;5.82;;;16.90;99.90;;;;;;4933941;29;20035;-88
2023/09/29 01:41:43;;;;;;;13.07;5.85;;;16.90;99.90;;;;;;4935454;29;20073;-89
2023/09/29 01:44:09;;;;;;;13.18;6.13;;;16.90;99.90;;;;;;4932375;29;20043;-88
2023/09/29 01:46:35;;;;;;;15.13;6.80;;;16.90;99.90;;;;;;4950433;28;20050;-88
2023/09/29 01:49:00;;;;;;;15.60;6.78;;;16.90;99.90;;;;;;4917931;29;20472;-88
2023/09/29 01:51:29;;;;;;;11.45;5.97;;;16.90;99.90;;;;;;4935856;29;20027;-87
2023/09/29 01:53:55;;;;;;;12.63;6.00;;;16.90;99.90;;;;;;4931346;29;20127;-88
2023/09/29 01:56:21;;;;;;;14.43;6.43;;;16.90;99.90;;;;;;4935808;29;20125;-87
2023/09/29 01:58:48;;;;;;;16.75;6.10;;;16.90;99.90;;;;;;4935721;29;20179;-88
2023/09/29 02:01:14;;;;;;;10.80;5.57;;;17.00;99.90;;;;;;4934605;29;20051;-88
2023/09/29 02:03:41;;;;;;;13.55;5.85;;;16.90;99.90;;;;;;4949186;28;20508;-87
2023/09/29 02:06:06;;;;;;;14.77;5.53;;;17.00;99.90;;;;;;4945871;28;20159;-87
2023/09/29 02:08:32;;;;;;;16.00;5.97;;;17.00;99.90;;;;;;4935539;29;20122;-88
2023/09/29 02:10:58;;;;;;;12.00;5.88;;;17.00;99.90;;;;;;4934704;29;20032;-88
2023/09/29 02:13:23;;;;;;;9.82;5.57;;;17.00;99.90;;;;;;4935806;29;20034;-87
2023/09/29 02:15:49;;;;;;;11.40;5.20;;;17.00;99.90;;;;;;4926964;29;20031;-88
2023/09/29 02:18:14;;;;;;;13.68;6.60;;;17.00;99.90;;;;;;4936003;29;20044;-88
2023/09/29 02:20:46;;;;;;;12.68;5.18;;;17.00;99.90;;;;;;4951290;28;20114;-88
2023/09/29 02:23:14;;;;;;;20.10;6.43;;;17.00;99.90;;;;;;4934773;29;20028;-87
2023/09/29 02:25:41;;;;;;;9.90;5.00;;;17.00;99.90;;;;;;4935557;29;20040;-88
2023/09/29 02:28:09;;;;;;;9.13;4.45;;;17.00;99.90;;;;;;4931078;29;20111;-87
2023/09/29 02:30:35;;;;;;;9.57;5.55;;;17.00;99.90;;;;;;4926702;29;20035;-88
2023/09/29 02:33:01;;;;;;;9.30;4.47;;;17.00;99.90;;;;;;4935384;29;20055;-88
2023/09/29 02:35:28;;;;;;;11.77;5.45;;;17.00;99.90;;;;;;4936277;29;20087;-87
2023/09/29 02:37:54;;;;;;;9.02;5.22;;;17.00;99.90;;;;;;4935137;29;20059;-88
2023/09/29 02:40:19;;;;;;;10.60;5.15;;;17.00;99.90;;;;;;4949375;28;20067;-88
2023/09/29 02:42:45;;;;;;;5.45;3.78;;;17.00;99.90;;;;;;4932047;29;20536;-88
2023/09/29 02:45:12;;;;;;;12.43;4.45;;;17.00;99.90;;;;;;4932600;28;20048;-88
2023/09/29 02:47:41;;;;;;;8.27;4.43;;;17.00;99.90;;;;;;4929190;29;20019;-88
2023/09/29 02:50:09;;;;;;;13.02;4.10;;;16.90;99.90;;;;;;4934185;29;20036;-88
2023/09/29 02:52:36;;;;;;;7.43;3.67;;;17.00;99.90;;;;;;4934645;29;20031;-88
2023/09/29 02:55:04;;;;;;;6.53;3.05;;;17.00;99.90;;;;;;4933600;29;20036;-88
2023/09/29 02:57:30;;;;;;;7.30;3.47;;;17.00;99.90;;;;;;4934839;29;20032;-88
2023/09/29 02:59:57;;;;;;;10.00;3.45;;;17.00;99.90;;;;;;4948816;28;20039;-89
2023/09/29 03:02:23;;;;;;;8.02;3.20;;;17.00;99.90;;;;;;4919275;29;20028;-89
2023/09/29 03:04:48;;;;;;;8.38;3.90;;;17.00;99.90;;;;;;4933330;29;20101;-88
2023/09/29 03:07:14;;;;;;;9.50;3.10;;;17.00;99.90;;;;;;4928975;29;20729;-88
2023/09/29 03:09:41;;;;;;;6.35;2.50;;;17.10;99.90;;;;;;4933089;29;20504;-88
2023/09/29 03:12:07;;;;;;;9.27;3.95;;;17.10;99.90;;;;;;4934249;28;20114;-88
2023/09/29 03:14:32;;;;;;;8.10;3.60;;;17.10;99.90;;;;;;4935682;29;20047;-88
2023/09/29 03:17:01;;;;;;;5.10;2.75;;;17.10;99.90;;;;;;4934610;29;20047;-88
2023/09/29 03:19:32;;;;;;;7.65;2.35;;;17.20;99.90;;;;;;4926264;29;20362;-88
2023/09/29 03:21:58;;;;;;;8.17;2.50;;;17.20;99.90;;;;;;4947789;28;20484;-87
2023/09/29 03:24:26;;;;;;;6.95;2.45;;;17.20;99.90;;;;;;4934643;29;20032;-88
2023/09/29 03:26:52;;;;;;;7.93;2.28;;;17.20;99.90;;;;;;4926833;29;20032;-88
2023/09/29 03:29:20;;;;;;;6.53;1.98;;;17.20;99.90;;;;;;4934943;29;20405;-88
2023/09/29 03:31:47;;;;;;;6.53;2.40;;;17.20;99.90;;;;;;4934401;29;20429;-88
2023/09/29 03:34:14;;;;;;;6.10;2.38;;;17.30;99.90;;;;;;4929491;29;20035;-88
2023/09/29 03:36:39;;;;;;;9.15;2.85;;;17.30;99.90;;;;;;4933954;28;20126;-88
2023/09/29 03:39:06;;;;;;;6.47;2.50;;;17.30;99.90;;;;;;4934267;29;20119;-88
2023/09/29 03:41:33;;;;;;;4.95;1.85;;;17.30;99.90;;;;;;4918675;29;20607;-87
2023/09/29 03:43:59;;;;;;;6.53;2.35;;;17.30;99.90;;;;;;4928916;29;20035;-88
2023/09/29 03:46:24;;;;;;;3.97;1.88;;;17.30;99.90;;;;;;4933770;29;20027;-87
2023/09/29 03:48:50;;;;;;;4.60;1.85;;;17.30;99.90;;;;;;4933519;29;20381;-88
2023/09/29 03:51:25;;;;;;;7.18;2.20;;;17.30;99.90;;;;;;4933072;29;20127;-89
2023/09/29 03:53:52;;;;;;;11.02;2.20;;;17.30;99.90;;;;;;4929754;29;20102;-88
2023/09/29 03:56:18;;;;;;;7.10;2.10;;;17.30;99.90;;;;;;4949990;28;20119;-87
2023/09/29 03:58:44;;;;;;;7.50;2.67;;;17.30;99.90;;;;;;4933162;29;20089;-88
2023/09/29 04:01:10;;;;;;;8.48;2.60;;;17.30;99.90;;;;;;4921441;29;20389;-87
2023/09/29 04:03:35;;;;;;;5.55;1.92;;;17.30;99.90;;;;;;4932344;29;20555;-88
2023/09/29 04:06:01;;;;;;;6.82;1.75;;;17.30;99.90;;;;;;4933790;29;20055;-87
2023/09/29 04:08:26;;;;;;;4.63;2.08;;;17.40;99.90;;;;;;4933060;29;20396;-88
2023/09/29 04:10:55;;;;;;;6.32;2.08;;;17.40;99.90;;;;;;4929450;29;20024;-88
2023/09/29 04:13:21;;;;;;;5.45;2.30;;;17.40;99.90;;;;;;4933827;29;20063;-88
2023/09/29 04:15:46;;;;;;;6.40;2.30;;;17.30;99.90;;;;;;4934039;29;20032;-88
2023/09/29 04:18:12;;;;;;;6.60;1.95;;;17.40;99.90;;;;;;4934521;29;20054;-88
2023/09/29 04:20:37;;;;;;;4.90;1.95;;;17.40;99.90;;;;;;4930224;29;20024;-88
2023/09/29 04:23:06;;;;;;;5.95;2.00;;;17.40;99.90;;;;;;4929062;29;20042;-89
2023/09/29 04:25:32;;;;;;;6.20;2.25;;;17.40;99.90;;;;;;4924720;29;20038;-87
2023/09/29 04:27:57;;;;;;;5.32;2.10;;;17.40;99.90;;;;;;4933751;29;20039;-88
2023/09/29 04:30:23;;;;;;;8.30;2.60;;;17.30;99.90;;;;;;4934075;29;20067;-88
2023/09/29 04:32:48;;;;;;;7.43;2.95;;;17.40;99.90;;;;;;4931512;29;20456;-89
2023/09/29 04:35:14;;;;;;;5.78;1.80;;;17.40;99.90;;;;;;4928373;29;20539;-88
2023/09/29 04:37:40;;;;;;;6.68;1.80;;;17.40;99.90;;;;;;4933435;29;20024;-87
2023/09/29 04:40:06;;;;;;;5.57;2.75;;;17.40;99.90;;;;;;4927873;29;20024;-88
2023/09/29 04:42:33;;;;;;;6.03;2.63;;;17.40;99.90;;;;;;4947047;29;20024;-88
2023/09/29 04:44:59;;;;;;;7.63;3.17;;;17.40;99.90;;;;;;4933128;29;20043;-89
2023/09/29 04:47:26;;;;;;;6.50;1.80;;;17.40;99.90;;;;;;4943227;28;20035;-88
2023/09/29 04:49:52;;;;;;;7.93;2.13;;;17.40;99.90;;;;;;4942490;28;20028;-88
2023/09/29 04:52:17;;;;;;;7.43;2.40;;;17.40;99.90;;;;;;4938545;29;20027;-88
2023/09/29 04:54:43;;;;;;;6.22;2.30;;;17.40;99.90;;;;;;4933420;29;20526;-86
2023/09/29 04:57:09;;;;;;;4.63;2.42;;;17.50;99.90;;;;;;4932164;28;20477;-88
2023/09/29 04:59:35;;;;;;;8.35;2.72;;;17.40;99.90;;;;;;4933481;29;20061;-88
2023/09/29 05:02:00;;;;;;;5.65;1.98;;;17.50;99.90;;;;;;4931262;29;20523;-87
2023/09/29 05:04:26;;;;;;;6.13;1.80;;;17.50;99.90;;;;;;4931751;29;20044;-88
2023/09/29 05:06:52;;;;;;;6.18;2.13;;;17.50;99.90;;;;;;4948909;28;20024;-88
2023/09/29 05:09:18;;;;;;;8.40;2.00;;;17.60;99.90;;;;;;4931632;29;20457;-88
2023/09/29 05:11:43;;;;;;;4.20;1.70;;;17.60;99.90;;;;;;4931995;29;20044;-86
2023/09/29 05:14:10;;;;;;;6.82;2.45;;;17.70;99.90;;;;;;4933384;29;20070;-88
2023/09/29 05:16:35;;;;;;;4.18;1.60;;;17.70;99.90;;;;;;4934642;29;20031;-88
2023/09/29 05:19:01;;;;;;;5.03;2.15;;;17.70;99.90;;;;;;4936499;29;20031;-87
2023/09/29 05:21:27;;;;;;;3.25;1.50;;;17.70;99.90;;;;;;4923489;29;20051;-88
2023/09/29 05:23:53;;;;;;;5.68;2.50;;;17.70;99.90;;;;;;4952657;29;20043;-88
2023/09/29 05:26:18;;;;;;;6.15;1.90;;;17.80;99.90;;;;;;4951654;28;20612;-88
2023/09/29 05:28:44;;;;;;;5.10;1.70;;;17.70;99.90;;;;;;4936079;29;20392;-87
2023/09/29 05:31:10;;;;;;;6.32;1.77;;;17.80;99.90;;;;;;4934503;29;20027;-87
2023/09/29 05:33:36;;;;;;;5.63;1.50;;;17.80;99.90;;;;;;4937004;29;20031;-88
2023/09/29 05:36:03;;;;;;;4.80;1.67;;;17.80;99.90;;;;;;4936207;29;20027;-87
2023/09/29 05:38:28;;;;;;;5.45;1.85;;;17.80;99.90;;;;;;4934034;29;20024;-88
2023/09/29 05:40:54;;;;;;;5.85;1.83;;;17.90;99.90;;;;;;4928116;29;20043;-88
2023/09/29 05:43:20;;;;;;;2.92;1.95;;;17.90;99.90;;;;;;4943543;28;20619;-87
2023/09/29 05:45:46;;;;;;;7.13;2.10;;;17.90;99.90;;;;;;4935447;29;20114;-88
2023/09/29 05:48:12;;;;;;;4.90;2.33;;;17.90;99.90;;;;;;4936853;28;20024;-87
2023/09/29 05:50:37;;;;;;;6.50;1.85;;;18.00;99.90;;;;;;4936412;29;20036;-87
2023/09/29 05:53:04;;;;;;;5.53;2.30;;;18.00;99.90;;;;;;4938141;29;20039;-88
2023/09/29 05:55:30;;;;;;;3.97;2.03;;;17.90;99.90;;;;;;4931410;29;20122;-86
2023/09/29 05:57:55;;;;;;;3.60;1.63;;;18.00;99.90;;;;;;4918187;29;20114;-88
2023/09/29 06:00:21;;;;;;;5.97;2.25;;;18.10;99.90;;;;;;4927112;29;20035;-88
2023/09/29 06:02:47;;;;;;;3.55;1.55;;;18.10;99.90;;;;;;4936191;28;20032;-88
2023/09/29 06:05:13;;;;;;;7.30;2.30;;;18.10;99.90;;;;;;4936464;29;20400;-88
2023/09/29 06:07:39;;;;;;;5.30;1.92;;;18.10;99.90;;;;;;4930634;29;20152;-87
2023/09/29 06:10:06;;;;;;;3.78;1.55;;;18.20;99.90;;;;;;4952003;28;20935;-87
2023/09/29 06:12:32;;;;;;;3.15;1.75;;;18.20;99.90;;;;;;4935729;29;20092;-88
2023/09/29 06:14:57;;;;;;;3.63;1.52;;;18.30;99.90;;;;;;4936719;29;20053;-88
2023/09/29 06:17:23;;;;;;;2.08;1.05;;;18.30;99.90;;;;;;4937530;29;20060;-88
2023/09/29 06:19:49;;;;;;;4.28;1.73;;;18.40;99.90;;;;;;4936970;28;20034;-88
2023/09/29 06:22:15;;;;;;;3.75;1.60;;;18.40;99.90;;;;;;4935134;28;20087;-87
2023/09/29 06:24:42;;;;;;;4.10;1.60;;;18.50;99.90;;;;;;4936252;29;20130;-88
2023/09/29 06:27:07;;;;;;;3.83;1.77;;;18.50;99.90;;;;;;4933866;29;20036;-87
2023/09/29 06:29:33;;;;;;;4.95;2.00;;;18.50;99.90;;;;;;4936782;29;20028;-89
2023/09/29 06:31:58;;;;;;;4.05;1.42;;;18.60;99.90;;;;;;4934607;29;20042;-87
2023/09/29 06:34:24;;;;;;;6.15;1.90;;;18.60;99.90;;;;;;4922019;29;20087;-84
2023/09/29 06:36:49;;;;;;;7.13;1.48;;;18.70;99.90;;;;;;4931728;29;20038;-88
2023/09/29 06:39:15;;;;;;;3.50;1.45;;;18.80;99.90;;;;;;4947286;28;20024;-87
2023/09/29 06:41:40;;;;;;;2.70;1.33;;;18.80;99.90;;;;;;4933801;29;20028;-87
2023/09/29 06:44:06;;;;;;;4.88;1.50;;;18.80;99.90;;;;;;4945265;28;20083;-88
2023/09/29 06:46:32;;;;;;;5.03;1.20;;;18.80;99.90;;;;;;4946042;28;20024;-87
2023/09/29 06:48:58;;;;;;;4.97;1.50;;;18.90;99.90;;;;;;4916835;29;20050;-87
2023/09/29 06:51:24;;;;;;;3.50;1.35;;;18.90;99.90;;;;;;4927790;29;20024;-87
2023/09/29 06:53:50;;;;;;;5.28;1.08;;;18.90;99.90;;;;;;4925153;29;20028;-87
2023/09/29 06:56:15;;;;;;;2.85;1.67;;;19.00;99.90;;;;;;4932938;29;20027;-86
2023/09/29 06:58:41;;;;;;;9.82;2.58;;;19.00;99.90;;;;;;4930186;29;20024;-89
2023/09/29 07:01:07;;;;;;;5.45;1.60;;;19.10;99.90;;;;;;4931333;29;20027;-88
2023/09/29 07:03:33;;;;;;;5.22;1.35;;;19.10;99.90;;;;;;4935697;29;20039;-89
2023/09/29 07:06:00;;;;;;;3.72;1.35;;;19.10;99.90;;;;;;4935320;29;20030;-89
2023/09/29 07:08:25;;;;;;;2.33;0.95;;;19.20;99.90;;;;;;4935464;29;20031;-89
2023/09/29 07:10:51;;;;;;;4.05;1.20;;;19.20;99.90;;;;;;4934764;29;20102;-86
2023/09/29 07:13:16;;;;;;;4.32;1.17;;;19.20;99.90;;;;;;4932430;29;20039;-88
2023/09/29 07:15:42;;;;;;;3.50;1.48;;;19.30;99.90;;;;;;4932170;29;20029;-88
2023/09/29 07:18:10;;;;;;;2.95;0.82;;;19.30;99.90;;;;;;4932069;29;20040;-88
2023/09/29 07:20:37;;;;;;;2.80;1.15;;;19.40;99.90;;;;;;4950421;29;20030;-87
2023/09/29 07:23:03;;;;;;;3.25;1.40;;;19.50;99.90;;;;;;4934044;29;20035;-88
2023/09/29 07:25:29;;;;;;;2.35;1.00;;;19.60;99.90;;;;;;4943770;29;20044;-88
2023/09/29 07:27:55;;;;;;;5.60;1.35;;;19.70;99.90;;;;;;4934593;29;20377;-88
2023/09/29 07:30:20;;;;;;;3.85;1.30;;;19.80;99.90;;;;;;4950961;28;20066;-88
2023/09/29 07:32:46;;;;;;;4.45;1.35;;;19.90;99.90;;;;;;4950372;28;20070;-88
2023/09/29 07:35:12;;;;;;;5.28;1.33;;;19.90;99.90;;;;;;4935284;28;20082;-88
2023/09/29 07:37:38;;;;;;;5.53;1.58;;;20.00;99.90;;;;;;4947365;28;20400;-88
2023/09/29 07:40:08;;;;;;;5.05;1.42;;;20.00;99.90;;;;;;4931137;29;20024;-88
2023/09/29 07:42:33;;;;;;;4.03;1.20;;;20.10;99.90;;;;;;4932815;29;20024;-88
2023/09/29 07:44:59;;;;;;;3.30;1.02;;;20.20;99.90;;;;;;4934431;29;20051;-89
2023/09/29 07:47:24;;;;;;;3.22;0.90;;;20.30;99.90;;;;;;4950915;29;20392;-88
2023/09/29 07:49:50;;;;;;;3.03;1.00;;;20.30;99.90;;;;;;4948714;29;20032;-88
2023/09/29 07:52:15;;;;;;;3.15;1.23;;;20.40;99.90;;;;;;4933712;29;20090;-87
2023/09/29 07:54:41;;;;;;;2.83;1.23;;;20.40;99.90;;;;;;4934837;29;20030;-88
2023/09/29 07:57:07;;;;;;;4.07;1.17;;;20.40;99.90;;;;;;4950093;29;20035;-88
2023/09/29 07:59:32;;;;;;;4.25;1.10;;;20.40;99.90;;;;;;4950798;29;20036;-88
2023/09/29 08:01:58;;;;;;;5.45;1.38;;;20.50;99.90;;;;;;4946945;29;20172;-88
2023/09/29 08:04:24;;;;;;;2.60;0.95;;;20.50;99.90;;;;;;4942889;29;20032;-88
2023/09/29 08:06:50;;;;;;;3.30;1.33;;;20.60;99.90;;;;;;4934393;29;20484;-89
2023/09/29 08:09:16;;;;;;;6.25;0.95;;;20.70;99.90;;;;;;4931620;29;20042;-91
2023/09/29 08:11:42;;;;;;;4.35;0.88;;;20.70;99.90;;;;;;4937446;29;20048;-89
2023/09/29 08:14:08;;;;;;;3.45;1.05;;;20.90;99.90;;;;;;4935699;29;20020;-87
2023/09/29 08:16:34;;;;;;;2.45;0.80;;;20.90;99.90;;;;;;4934379;29;20568;-86
2023/09/29 08:19:01;;;;;;;4.28;0.80;;;21.00;99.90;;;;;;4933994;29;20106;-87
2023/09/29 08:21:26;;;;;;;4.03;1.15;;;21.20;99.90;;;;;;4933863;29;20391;-87
2023/09/29 08:23:52;;;;;;;2.80;0.95;;;21.30;99.90;;;;;;4933576;28;20035;-88
2023/09/29 08:26:17;;;;;;;3.03;0.82;;;21.40;99.90;;;;;;4950108;28;20388;-88
2023/09/29 08:28:43;;;;;;;2.42;1.00;;;21.50;99.90;;;;;;4921442;29;20039;-89
2023/09/29 08:31:16;;;;;;;3.25;0.98;;;21.60;99.90;;;;;;4946219;29;20091;-88
2023/09/29 08:33:42;;;;;;;2.92;0.93;;;21.70;99.90;;;;;;4950370;29;20024;-89
2023/09/29 08:36:08;;;;;;;3.03;0.80;;;21.80;99.90;;;;;;4949700;29;20055;-89
2023/09/29 08:38:33;;;;;;;3.45;0.90;;;21.80;99.90;;;;;;4934424;29;20055;-88
2023/09/29 08:41:05;;;;;;;3.35;1.00;;;21.90;99.90;;;;;;4927749;29;20040;-88
2023/09/29 08:43:33;;;;;;;2.38;1.20;;;22.00;99.90;;;;;;4934179;29;20028;-88
2023/09/29 08:45:59;;;;;;;3.47;0.80;;;22.00;99.90;;;;;;4933996;29;20519;-87
2023/09/29 08:48:27;;;;;;;4.35;1.15;;;22.00;99.90;;;;;;4934201;29;20031;-87
2023/09/29 08:50:57;;;;;;;4.45;1.13;;;22.00;99.90;;;;;;4934813;29;20038;-88
2023/09/29 08:53:25;;;;;;;7.43;0.90;;;22.00;99.90;;;;;;4937983;29;20050;-88
2023/09/29 08:55:54;;;;;;;3.13;0.85;;;22.00;99.90;;;;;;4932741;29;20107;-88
2023/09/29 08:58:21;;;;;;;2.92;0.95;;;22.10;99.90;;;;;;4934830;29;20036;-88
2023/09/29 09:00:46;;;;;;;4.70;1.15;;;22.10;99.90;;;;;;4919690;29;20036;-88
2023/09/29 09:03:12;;;;;;;6.57;0.90;;;22.10;99.90;;;;;;4936208;29;20597;-88
2023/09/29 09:05:37;;;;;;;2.88;1.00;;;22.00;99.90;;;;;;4936523;29;20119;-87
2023/09/29 09:08:03;;;;;;;4.40;1.17;;;22.10;99.90;;;;;;4936628;28;20030;-88
2023/09/29 09:10:34;;;;;;;5.30;1.00;;;22.00;99.90;;;;;;4936840;28;20043;-88
2023/09/29 09:13:00;;;;;;;4.10;1.20;;;22.00;99.90;;;;;;4939395;29;20031;-89
2023/09/29 09:15:26;;;;;;;4.63;0.93;;;22.10;99.90;;;;;;4943502;29;20075;-88
2023/09/29 09:17:51;;;;;;;3.20;0.85;;;22.20;99.90;;;;;;4933890;29;20059;-89
2023/09/29 09:20:17;;;;;;;5.88;1.38;;;22.30;99.90;;;;;;4951617;28;20399;-90
2023/09/29 09:22:44;;;;;;;3.28;1.05;;;22.50;99.90;;;;;;4952784;28;20020;-87
2023/09/29 09:25:12;;;;;;;5.93;1.20;;;22.50;99.90;;;;;;4934018;29;20158;-87
2023/09/29 09:27:43;;;;;;;5.60;1.00;;;22.50;99.90;;;;;;4925159;29;20031;-87
2023/09/29 09:30:23;;;;;;;3.75;1.35;;;22.50;99.90;;;;;;4932320;29;20492;-88
2023/09/29 09:32:49;;;;;;;3.75;1.10;;;22.50;99.90;;;;;;4925282;29;20123;-88
2023/09/29 09:35:26;;;;;;;4.88;1.17;;;22.50;99.90;;;;;;4934263;28;20043;-89
2023/09/29 09:37:51;;;;;;;4.78;1.40;;;22.40;99.90;;;;;;4929602;29;20035;-88
2023/09/29 09:40:19;;;;;;;4.20;1.00;;;22.40;99.90;;;;;;4948066;29;20050;-88
2023/09/29 09:42:46;;;;;;;9.18;1.02;;;22.40;99.90;;;;;;4923638;29;20055;-88
2023/09/29 09:45:13;;;;;;;4.65;1.08;;;22.40;99.90;;;;;;4935495;29;20036;-88
2023/09/29 09:47:40;;;;;;;4.35;1.10;;;22.30;99.90;;;;;;4933543;29;20048;-88
2023/09/29 09:50:09;;;;;;;6.13;1.10;;;22.30;99.90;;;;;;4949759;28;20515;-88
2023/09/29 09:52:38;;;;;;;3.30;1.10;;;22.20;99.90;;;;;;4936472;29;20020;-88
2023/09/29 09:55:10;;;;;;;5.70;1.30;;;22.20;99.90;;;;;;4930501;29;20459;-88
2023/09/29 09:57:38;;;;;;;4.05;1.40;;;22.10;99.90;;;;;;4946764;29;20032;-89
2023/09/29 10:00:12;;;;;;;6.55;1.75;;;22.10;99.90;;;;;;4941056;29;20860;-87
2023/09/29 10:02:43;;;;;;;3.13;1.08;;;22.20;99.90;;;;;;4934470;29;20027;-88
2023/09/29 10:05:22;;;;;;;3.58;0.90;;;22.30;99.90;;;;;;4934808;29;20534;-87
2023/09/29 10:07:49;;;;;;;2.67;0.73;;;22.40;99.90;;;;;;4933657;29;20265;-87
2023/09/29 10:10:34;;;;;;;3.88;1.10;;;22.30;99.90;;;;;;4933826;29;20042;-87
2023/09/29 10:13:11;;;;;;;3.42;0.73;;;22.20;99.90;;;;;;4950760;28;20476;-86
2023/09/29 10:16:00;;;;;;;3.95;0.90;;;22.10;99.90;;;;;;4925578;29;20127;-88
2023/09/29 10:18:27;;;;;;;2.95;0.82;;;22.10;99.90;;;;;;4951170;29;20051;-87
2023/09/29 10:21:00;;;;;;;3.75;0.90;;;22.10;99.90;;;;;;4930686;29;20515;-87
2023/09/29 10:23:26;;;;;;;3.97;0.90;;;21.90;99.90;;;;;;4954274;28;20024;-86
2023/09/29 10:26:00;;;;;;;8.40;1.00;;;21.80;99.90;;;;;;4951707;28;20507;-87
2023/09/29 10:28:34;;;;;;;2.00;0.90;;;21.70;99.90;;;;;;4951358;28;20506;-87
2023/09/29 10:31:08;;;;;;;4.45;1.45;;;21.60;99.90;;;;;;4934785;29;20057;-86
2023/09/29 10:33:53;;;;;;;3.13;0.77;;;21.60;99.90;;;;;;4936835;29;20437;-87
2023/09/29 10:36:25;;;;;;;3.85;0.93;;;21.60;99.90;;;;;;4936193;29;20032;-88
2023/09/29 10:38:51;;;;;;;;;;;21.50;99.90;;;;;;4934485;29;20060;-88
2023/09/29 10:41:18;;;;;;;3.58;1.30;;;21.60;99.90;;;;;;4950257;28;20287;-90
2023/09/29 10:43:48;;;;;;;3.55;1.23;;;21.60;99.90;;;;;;4932595;29;20040;-88
2023/09/29 10:46:20;;;;;;;3.15;0.90;;;21.70;99.90;;;;;;4942928;28;20028;-87
2023/09/29 10:48:49;;;;;;;7.13;1.50;;;21.80;99.90;;;;;;4934597;29;20035;-87
2023/09/29 10:51:27;;;;;;;7.35;1.58;;;21.90;99.90;;;;;;4949377;28;20028;-88
2023/09/29 10:53:53;;;;;;;4.30;1.10;;;22.10;99.90;;;;;;4935158;29;20480;-87
2023/09/29 10:56:24;;;;;;;3.85;1.00;;;22.10;99.90;;;;;;4935420;29;20444;-87
2023/09/29 10:58:54;;;;;;;4.30;1.30;;;22.30;99.90;;;;;;4935569;29;20036;-87
2023/09/29 11:01:33;;;;;;;3.22;1.00;;;22.40;99.90;;;;;;4931732;29;20047;-86
2023/09/29 11:04:03;;;;;;;4.05;1.45;;;22.40;99.90;;;;;;4938813;28;20119;-89
2023/09/29 11:06:29;;;;;;;5.07;1.35;;;22.40;99.90;;;;;;4931246;29;20030;-87
2023/09/29 11:08:57;;;;;;;4.65;1.13;;;22.40;99.90;;;;;;4937501;29;20102;-87
2023/09/29 11:11:32;;;;;;;3.42;1.00;;;22.40;99.90;;;;;;4934575;28;20028;-87
2023/09/29 11:13:58;;;;;;;6.15;1.33;;;22.50;99.90;;;;;;4923989;29;20055;-87
2023/09/29 11:16:27;;;;;;;2.00;0.80;;;22.50;99.90;;;;;;4936004;29;20024;-89
2023/09/29 11:19:06;;;;;;;4.65;1.08;;;22.50;99.90;;;;;;4936178;29;20016;-87
2023/09/29 11:21:36;;;;;;;3.80;1.10;;;22.50;99.90;;;;;;4933557;29;20143;-87
2023/09/29 11:24:10;;;;;;;4.53;1.00;;;22.40;99.90;;;;;;4931486;29;20040;-86
2023/09/29 11:26:45;;;;;;;3.25;0.90;;;22.40;99.90;;;;;;4943888;29;20086;-88
2023/09/29 11:29:23;;;;;;;3.72;0.93;;;22.50;99.90;;;;;;4935092;29;20456;-87
2023/09/29 11:31:53;;;;;;;4.00;0.90;;;22.50;99.90;;;;;;4935552;28;20028;-87
2023/09/29 11:34:19;;;;;;;3.08;0.80;;;22.60;99.90;;;;;;4922609;29;20031;-87
2023/09/29 11:36:44;;;;;;;2.92;0.82;;;22.60;99.90;;;;;;4931816;29;20115;-87
2023/09/29 11:39:16;;;;;;;3.40;1.08;;;22.60;99.90;;;;;;4931883;29;20485;-88
2023/09/29 11:41:42;;;;;;;;;;;22.60;99.90;;;;;;4944654;29;20028;-87
2023/09/29 11:44:08;;;;;;;5.57;1.52;;;22.50;99.90;;;;;;4950759;29;19922;-87
2023/09/29 11:46:33;;;;;;;2.55;0.80;;;22.50;99.90;;;;;;4934766;29;20023;-87
2023/09/29 11:48:59;;;;;;;4.10;0.80;;;22.30;99.90;;;;;;4934372;29;20036;-87
2023/09/29 11:51:25;;;;;;;7.18;0.90;;;22.10;99.90;;;;;;4934497;29;20078;-87
2023/09/29 11:53:50;;;;;;;1.90;0.73;;;21.90;99.90;;;;;;4935249;29;20043;-87
2023/09/29 11:56:16;;;;;;;3.78;0.80;;;21.80;99.90;;;;;;4941016;29;20043;-87
2023/09/29 11:58:41;;;;;;;2.55;0.82;;;21.70;99.90;;;;;;4940543;29;20028;-88
2023/09/29 12:01:08;;;;;;;3.05;0.90;;;21.70;99.90;;;;;;4916190;29;20028;-87
2023/09/29 12:03:34;;;;;;;3.58;1.00;;;21.60;99.90;;;;;;4916600;29;20118;-86
2023/09/29 12:06:02;;;;;;;3.53;1.30;;;21.60;99.90;;;;;;4934345;29;20596;-88
2023/09/29 12:08:28;;;;;;;4.50;1.27;;;21.50;99.90;;;;;;4931135;29;20051;-87
2023/09/29 12:10:53;;;;;;;2.63;1.30;;;21.30;99.90;;;;;;4945433;29;20035;-87
2023/09/29 12:13:19;;;;;;;5.38;1.50;;;21.10;99.90;;;;;;4936872;29;20459;-88
2023/09/29 12:15:45;;;;;;;6.30;1.73;;;20.80;99.90;;;;;;4943482;28;20055;-87
2023/09/29 12:18:11;;;;;;;3.60;1.50;;;20.50;99.90;;;;;;4931304;29;20048;-89
2023/09/29 12:20:41;;;;;;;5.63;1.30;;;20.30;99.90;;;;;;4916706;29;20056;-89
2023/09/29 12:23:08;;;;;;;5.75;1.50;;;20.20;99.90;;;;;;4947109;29;20476;-87
2023/09/29 12:25:35;;;;;;;3.10;0.85;;;20.10;99.90;;;;;;4944015;28;20066;-87
2023/09/29 12:28:01;;;;;;;3.13;0.70;;;19.90;99.90;;;;;;4932359;29;20027;-88
2023/09/29 12:30:27;;;;;;;2.72;0.45;;;19.70;99.90;;;;;;4947976;28;20066;-89
2023/09/29 12:32:53;;;;;;;2.55;0.57;;;19.40;99.90;;;;;;4954176;29;20043;-89
2023/09/29 12:35:19;;;;;;;2.50;0.50;;;19.30;99.90;;;;;;4954218;29;20056;-89
2023/09/29 12:37:45;;;;;;;2.78;0.40;;;19.20;99.90;;;;;;4937959;29;20031;-89
2023/09/29 12:40:12;;;;;;;1.23;0.32;;;19.20;99.90;;;;;;4928243;29;20028;-89
2023/09/29 12:42:47;;;;;;;2.47;0.40;;;19.20;99.90;;;;;;4946144;29;20484;-89
2023/09/29 12:45:14;;;;;;;1.92;0.30;;;19.20;99.90;;;;;;4937983;29;20032;-89
2023/09/29 12:47:41;;;;;;;2.03;0.30;;;19.10;99.90;;;;;;4938185;29;20032;-89